Time;durP1;ratioP1;P1;durP2;ratioP2;P2;SDS_P1;SDS_P2;PMS_P1;PMS_P2;Temp;Humidity;BMP_temperature;BMP_pressure;BME280_temperature;BME280_humidity;BME280_pressure;Samples;Min_cycle;Max_cycle;Signal;HPM_P1;HPM_P2
2021/08/16 00:02:06;;;;;;;10.85;8.30;;;;;;;21.11;65.42;98100.16;262771;1089;24064;-73
2021/08/16 00:07:09;;;;;;;10.03;8.20;;;;;;;21.14;65.61;98096.67;262786;1088;22801;-72
2021/08/16 00:12:14;;;;;;;11.37;9.07;;;;;;;21.13;65.86;98095.13;262600;1090;22862;-72
2021/08/16 00:17:26;;;;;;;11.15;9.35;;;;;;;21.13;65.90;98092.41;262632;1088;23299;-71
2021/08/16 00:22:37;;;;;;;11.75;8.80;;;;;;;21.19;66.32;98082.73;262730;1090;22802;-72
2021/08/16 00:27:49;;;;;;;13.35;8.58;;;;;;;21.26;66.42;98071.89;262678;1090;26494;-72
2021/08/16 00:32:52;;;;;;;9.70;8.37;;;;;;;21.25;66.06;98080.44;262592;1088;23607;-73
2021/08/16 00:37:57;;;;;;;10.35;9.23;;;;;;;21.20;66.43;98062.52;262864;1088;22854;-72
2021/08/16 00:43:00;;;;;;;9.30;7.87;;;;;;;21.15;66.54;98079.98;262720;1090;24457;-72
2021/08/16 00:48:04;;;;;;;21.17;9.47;;;;;;;21.07;66.85;98086.52;262591;1087;22911;-73
2021/08/16 00:53:08;;;;;;;12.38;8.95;;;;;;;21.00;68.87;98097.36;262735;1087;24345;-71
2021/08/16 00:58:12;;;;;;;13.48;10.15;;;;;;;20.83;69.37;98076.94;262648;1087;25894;-71
2021/08/16 01:03:15;;;;;;;10.60;9.33;;;;;;;20.76;69.98;98074.16;262682;1088;23421;-71
2021/08/16 01:08:20;;;;;;;12.93;10.35;;;;;;;20.72;71.12;98057.81;262740;1087;24298;-71
2021/08/16 01:13:24;;;;;;;13.97;10.63;;;;;;;20.73;70.99;98058.58;262740;1086;22955;-72
2021/08/16 01:18:32;;;;;;;13.50;10.67;;;;;;;20.77;71.64;98071.05;262633;1085;23036;-72
2021/08/16 01:23:38;;;;;;;13.53;10.23;;;;;;;20.85;71.71;98058.31;262801;1087;25861;-72
2021/08/16 01:28:41;;;;;;;11.07;9.90;;;;;;;20.93;72.36;98059.95;262691;1087;24478;-71
2021/08/16 01:33:45;;;;;;;11.58;10.30;;;;;;;20.92;71.80;98054.88;262796;1086;25843;-71
2021/08/16 01:38:56;;;;;;;11.33;8.93;;;;;;;20.82;72.51;98053.63;262743;1087;22768;-71
2021/08/16 01:43:59;;;;;;;10.20;8.93;;;;;;;20.71;72.12;98052.73;262846;1087;22873;-71
2021/08/16 01:49:02;;;;;;;11.93;10.10;;;;;;;20.64;72.63;98048.75;262830;1087;25905;-71
2021/08/16 01:54:11;;;;;;;10.83;8.90;;;;;;;20.61;73.24;98037.84;262766;1087;22803;-71
2021/08/16 01:59:14;;;;;;;12.00;9.17;;;;;;;20.57;73.44;98043.23;262850;1087;22769;-71
2021/08/16 02:04:25;;;;;;;12.30;10.30;;;;;;;20.60;73.43;98025.39;262752;1087;25790;-72
2021/08/16 02:09:29;;;;;;;11.87;10.40;;;;;;;20.64;74.05;98015.32;262738;1089;24074;-71
2021/08/16 02:14:36;;;;;;;13.13;10.18;;;;;;;20.70;73.78;98007.63;262667;1087;22790;-72
2021/08/16 02:19:41;;;;;;;12.27;10.27;;;;;;;20.79;74.04;97980.87;262782;1088;27517;-71
2021/08/16 02:24:45;;;;;;;12.90;10.40;;;;;;;20.87;74.49;97990.66;262709;1089;24354;-71
2021/08/16 02:29:48;;;;;;;10.70;9.60;;;;;;;20.94;73.81;97974.38;262966;1089;24322;-72
2021/08/16 02:34:52;;;;;;;10.67;8.80;;;;;;;21.02;73.72;97970.56;262645;1088;24482;-72
2021/08/16 02:39:55;;;;;;;10.50;9.13;;;;;;;21.13;73.58;97969.88;262688;1090;22832;-72
2021/08/16 02:45:00;;;;;;;13.68;9.13;;;;;;;21.20;73.71;97959.80;262878;1087;22787;-71
2021/08/16 02:50:23;;;;;;;11.10;9.80;;;;;;;21.27;73.28;97953.62;262642;1087;22770;-72
2021/08/16 02:55:36;;;;;;;12.30;8.90;;;;;;;21.29;73.43;97978.52;262771;1088;22857;-71
2021/08/16 03:00:58;;;;;;;10.43;9.18;;;;;;;21.23;72.65;97977.33;262700;1085;22962;-72
2021/08/16 03:06:15;;;;;;;12.07;9.10;;;;;;;21.16;73.08;97986.22;262669;1085;22799;-71
2021/08/16 03:11:19;;;;;;;10.43;9.43;;;;;;;21.09;73.70;97972.56;262707;1086;22825;-71
2021/08/16 03:16:24;;;;;;;11.90;9.80;;;;;;;20.99;73.79;97990.38;262642;1087;23439;-71
2021/08/16 03:21:27;;;;;;;13.20;9.85;;;;;;;20.87;74.22;98001.55;262790;1087;24374;-71
2021/08/16 03:26:31;;;;;;;13.63;10.43;;;;;;;20.77;74.16;98024.02;262789;1087;22821;-72
2021/08/16 03:31:35;;;;;;;13.37;10.50;;;;;;;20.63;74.40;98019.96;262713;1089;25890;-72
2021/08/16 03:36:42;;;;;;;12.13;10.07;;;;;;;20.59;75.00;98024.58;262756;1089;22956;-71
2021/08/16 03:41:45;;;;;;;13.40;9.73;;;;;;;20.64;74.90;98026.98;262853;1086;25890;-70
2021/08/16 03:46:49;;;;;;;14.23;10.78;;;;;;;20.67;75.64;98018.09;263001;1087;24472;-71
2021/08/16 03:51:53;;;;;;;12.20;10.50;;;;;;;20.74;75.73;98020.10;262631;1087;22918;-71
2021/08/16 03:56:56;;;;;;;12.00;10.50;;;;;;;20.82;75.28;98031.85;262634;1087;24422;-71
2021/08/16 04:02:00;;;;;;;14.97;11.40;;;;;;;20.86;75.51;98021.78;262773;1089;22821;-71
2021/08/16 04:07:03;;;;;;;12.97;10.93;;;;;;;20.82;74.88;98020.96;262799;1087;25903;-72
2021/08/16 04:12:07;;;;;;;14.60;10.70;;;;;;;20.76;74.99;98012.36;262697;1089;22803;-71
2021/08/16 04:17:11;;;;;;;14.40;10.73;;;;;;;20.75;74.91;98029.04;262868;1087;23462;-72
2021/08/16 04:22:14;;;;;;;15.00;10.97;;;;;;;20.75;75.06;98020.88;263003;1090;24339;-71
2021/08/16 04:27:18;;;;;;;13.57;10.83;;;;;;;20.73;75.43;98015.80;262688;1087;24021;-72
2021/08/16 04:32:21;;;;;;;13.73;10.87;;;;;;;20.66;75.05;98010.27;262942;1090;24457;-72
2021/08/16 04:37:24;;;;;;;14.25;10.00;;;;;;;20.59;75.38;98008.26;262740;1089;23330;-71
2021/08/16 04:42:28;;;;;;;13.18;9.80;;;;;;;20.58;75.26;98003.20;262667;1088;24064;-72
2021/08/16 04:47:31;;;;;;;13.37;10.60;;;;;;;20.62;75.70;97987.69;262723;1087;24201;-71
2021/08/16 04:52:40;;;;;;;12.18;9.78;;;;;;;20.78;76.32;97992.93;262873;1089;24469;-72
2021/08/16 04:57:43;;;;;;;13.73;10.38;;;;;;;20.94;75.70;97990.72;262703;1089;26037;-72
2021/08/16 05:02:46;;;;;;;12.60;11.13;;;;;;;21.18;76.22;97999.45;262726;1087;23476;-71
2021/08/16 05:07:54;;;;;;;14.98;11.28;;;;;;;21.35;76.17;98001.53;262960;1087;22780;-72
2021/08/16 05:13:01;;;;;;;10.60;9.50;;;;;;;21.50;75.71;97998.89;262797;1088;22958;-72
2021/08/16 05:18:08;;;;;;;11.00;9.20;;;;;;;21.55;75.12;98005.98;262817;1089;22812;-72
2021/08/16 05:23:11;;;;;;;11.83;9.80;;;;;;;21.61;75.10;98013.39;262812;1087;22772;-71
2021/08/16 05:28:15;;;;;;;11.67;9.37;;;;;;;21.65;74.77;98008.73;262765;1087;24307;-72
2021/08/16 05:33:18;;;;;;;11.30;9.25;;;;;;;21.68;74.91;98016.15;262729;1087;22907;-71
2021/08/16 05:38:21;;;;;;;12.50;9.63;;;;;;;21.80;74.70;98014.28;262774;1087;26120;-72
2021/08/16 05:43:24;;;;;;;9.45;8.50;;;;;;;21.95;74.66;98015.12;262811;1089;23183;-71
2021/08/16 05:48:28;;;;;;;10.73;8.73;;;;;;;22.04;74.30;98024.51;263266;1087;22853;-72
2021/08/16 05:53:43;;;;;;;8.95;8.05;;;;;;;22.17;74.91;98029.63;263236;1087;22800;-73
2021/08/16 05:59:03;;;;;;;8.98;6.85;;;;;;;22.29;74.39;98025.78;263409;1087;22819;-75
2021/08/16 06:04:10;;;;;;;10.38;6.78;;;;;;;22.48;73.62;98021.95;263620;1087;23513;-73
2021/08/16 06:09:23;;;;;;;7.70;6.25;;;;;;;22.69;73.17;98032.93;265726;1087;24348;-73
2021/08/16 06:14:28;;;;;;;7.18;6.35;;;;;;;22.87;72.60;98029.42;263312;1085;24372;-73
2021/08/16 06:19:49;;;;;;;7.75;4.93;;;;;;;23.03;71.49;98034.52;263052;1087;22796;-73
2021/08/16 06:24:52;;;;;;;6.50;5.30;;;;;;;23.14;70.05;98035.34;263061;1087;23637;-73
2021/08/16 06:29:56;;;;;;;6.33;4.78;;;;;;;23.25;69.44;98029.84;262977;1088;26305;-72
2021/08/16 06:35:01;;;;;;;7.15;4.95;;;;;;;23.35;68.29;98036.47;263344;1090;22774;-72
2021/08/16 06:40:07;;;;;;;5.98;5.10;;;;;;;23.45;68.29;98030.23;263172;1087;26029;-72
2021/08/16 06:45:18;;;;;;;5.43;4.45;;;;;;;23.57;67.19;98034.50;262986;1087;22829;-73
2021/08/16 06:50:50;;;;;;;4.70;4.05;;;;;;;23.72;65.69;98036.02;262944;1088;22799;-73
2021/08/16 06:56:13;;;;;;;4.88;4.25;;;;;;;23.82;64.13;98039.14;263361;1087;25973;-73
2021/08/16 07:01:25;;;;;;;5.35;3.63;;;;;;;23.93;65.12;98039.14;263230;1089;22793;-72
2021/08/16 07:06:29;;;;;;;5.23;4.03;;;;;;;24.06;64.42;98037.52;263324;1088;22806;-73
2021/08/16 07:11:32;;;;;;;4.95;3.78;;;;;;;24.18;63.51;98048.02;263041;1087;24476;-73
2021/08/16 07:16:37;;;;;;;4.83;3.80;;;;;;;24.32;63.04;98041.71;263084;1086;26015;-73
2021/08/16 07:21:53;;;;;;;5.63;3.93;;;;;;;24.47;62.35;98053.38;262947;1087;22795;-73
2021/08/16 07:27:04;;;;;;;6.98;4.53;;;;;;;24.61;62.41;98049.81;263264;1087;25989;-73
2021/08/16 07:32:07;;;;;;;5.73;3.70;;;;;;;24.83;62.03;98055.14;263220;1085;22822;-72
2021/08/16 07:37:12;;;;;;;6.88;4.23;;;;;;;25.02;61.11;98049.13;263184;1084;24460;-72
2021/08/16 07:42:29;;;;;;;;;;;;;;;25.17;59.62;98047.06;263763;1087;23265;-72
2021/08/16 07:47:32;;;;;;;5.23;4.43;;;;;;;25.34;59.80;98045.38;263411;1087;22006;-73
2021/08/16 07:52:42;;;;;;;7.53;4.63;;;;;;;25.49;59.20;98050.72;263158;1087;23568;-72
2021/08/16 07:57:45;;;;;;;4.35;3.95;;;;;;;25.64;57.94;98054.11;265038;1087;25970;-72
2021/08/16 08:02:51;;;;;;;3.90;3.55;;;;;;;25.68;56.78;98052.11;262917;1087;22767;-71
2021/08/16 08:07:54;;;;;;;6.08;5.13;;;;;;;25.76;56.94;98075.55;263095;1087;22846;-72
2021/08/16 08:12:58;;;;;;;4.50;4.10;;;;;;;25.86;56.74;98079.36;263311;1087;27201;-75
2021/08/16 08:18:15;;;;;;;4.63;4.15;;;;;;;26.03;56.02;98083.89;263087;1085;23753;-74
2021/08/16 08:23:18;;;;;;;5.65;4.15;;;;;;;26.12;54.82;98081.45;263039;1087;22844;-73
2021/08/16 08:28:21;;;;;;;4.58;4.05;;;;;;;26.16;53.77;98077.88;262939;1089;23668;-73
2021/08/16 08:33:24;;;;;;;4.03;3.63;;;;;;;26.27;53.62;98087.56;263031;1087;24335;-73
2021/08/16 08:38:27;;;;;;;4.85;3.60;;;;;;;26.40;51.67;98084.24;263040;1087;26289;-73
2021/08/16 08:43:30;;;;;;;3.78;3.40;;;;;;;26.46;52.29;98088.11;263073;1088;26475;-73
2021/08/16 08:48:33;;;;;;;9.40;3.98;;;;;;;26.54;50.88;98089.57;263084;1090;25890;-73
2021/08/16 08:53:38;;;;;;;6.75;4.18;;;;;;;26.61;51.06;98085.93;263066;1087;24363;-73
2021/08/16 08:58:54;;;;;;;3.80;3.03;;;;;;;26.75;50.55;98087.73;263115;1087;26009;-73
2021/08/16 09:04:04;;;;;;;4.50;3.30;;;;;;;26.86;51.34;98093.08;263427;1087;23415;-72
2021/08/16 09:09:10;;;;;;;4.05;3.55;;;;;;;26.95;50.55;98090.60;263103;1090;26524;-72
2021/08/16 09:14:19;;;;;;;3.63;3.00;;;;;;;27.02;50.22;98089.72;263117;1087;24310;-74
2021/08/16 09:19:29;;;;;;;4.75;3.65;;;;;;;27.10;49.66;98099.39;262974;1087;22879;-73
2021/08/16 09:24:36;;;;;;;4.20;3.63;;;;;;;27.08;49.21;98097.06;263463;1085;25449;-73
2021/08/16 09:29:50;;;;;;;4.50;3.93;;;;;;;27.12;49.02;98095.03;263258;1088;22872;-73
2021/08/16 09:34:53;;;;;;;4.67;3.50;;;;;;;27.18;49.49;98091.83;263007;1090;22834;-73
2021/08/16 09:40:08;;;;;;;5.33;3.30;;;;;;;27.32;50.03;98080.59;263093;1088;22867;-74
2021/08/16 09:45:13;;;;;;;6.65;3.93;;;;;;;27.56;49.12;98083.36;263101;1087;22816;-73
2021/08/16 09:50:16;;;;;;;4.33;3.93;;;;;;;27.80;48.83;98076.64;263234;1087;22919;-73
2021/08/16 09:55:20;;;;;;;4.70;3.28;;;;;;;28.03;48.79;98083.31;263554;1087;24052;-74
2021/08/16 10:00:26;;;;;;;6.58;3.70;;;;;;;28.14;48.06;98070.12;263121;1087;22788;-73
2021/08/16 10:05:31;;;;;;;4.05;3.73;;;;;;;28.17;47.77;98065.74;263535;1087;23849;-73
2021/08/16 10:10:41;;;;;;;5.40;3.68;;;;;;;28.16;48.02;98067.73;263239;1086;22770;-73
2021/08/16 10:15:47;;;;;;;4.20;3.45;;;;;;;28.14;47.75;98066.59;263142;1087;27070;-73
2021/08/16 10:20:51;;;;;;;4.98;3.75;;;;;;;27.88;47.11;98058.01;263093;1089;25974;-73
2021/08/16 10:25:56;;;;;;;5.18;3.55;;;;;;;27.95;47.91;98041.38;263268;1089;23356;-74
2021/08/16 10:31:02;;;;;;;4.33;3.57;;;;;;;28.12;47.92;98036.74;263867;1085;22781;-73
2021/08/16 10:36:06;;;;;;;4.73;3.63;;;;;;;28.27;47.86;98033.69;263114;1086;23385;-75
2021/08/16 10:41:39;;;;;;;7.05;4.18;;;;;;;28.40;47.53;98036.55;263111;1087;24065;-74
2021/08/16 10:46:47;;;;;;;5.25;3.58;;;;;;;28.31;46.92;98039.89;263121;1087;22794;-73
2021/08/16 10:51:51;;;;;;;5.05;3.68;;;;;;;28.25;45.52;98028.60;263118;1087;24363;-74
2021/08/16 10:56:56;;;;;;;3.73;3.35;;;;;;;28.20;45.94;98037.36;263068;1087;22790;-75
2021/08/16 11:01:59;;;;;;;5.05;3.55;;;;;;;28.21;45.56;98033.41;262971;1088;23262;-74
2021/08/16 11:07:23;;;;;;;4.00;3.05;;;;;;;28.25;45.22;98020.34;263008;1087;22849;-73
2021/08/16 11:12:34;;;;;;;5.40;3.50;;;;;;;28.09;45.23;98023.04;263265;1087;26022;-74
2021/08/16 11:17:38;;;;;;;3.10;2.80;;;;;;;28.27;45.02;98028.17;262944;1088;22784;-74
2021/08/16 11:22:51;;;;;;;2.83;2.63;;;;;;;28.51;45.18;98010.34;262989;1090;25957;-74
2021/08/16 11:28:02;;;;;;;3.78;3.33;;;;;;;28.74;44.94;98014.17;263048;1089;22844;-73
2021/08/16 11:33:05;;;;;;;5.45;3.30;;;;;;;28.81;43.34;98002.21;263167;1087;22888;-72
2021/08/16 11:38:13;;;;;;;3.93;3.53;;;;;;;28.95;44.28;97998.34;263198;1087;22854;-74
2021/08/16 11:43:25;;;;;;;4.83;3.50;;;;;;;29.12;44.77;98005.38;263181;1090;27539;-73
2021/08/16 11:48:30;;;;;;;5.30;3.70;;;;;;;29.16;42.82;97999.78;263073;1087;22777;-73
2021/08/16 11:53:44;;;;;;;4.60;3.05;;;;;;;29.17;43.67;97990.28;263049;1087;22889;-74
2021/08/16 11:58:47;;;;;;;5.95;3.50;;;;;;;29.26;44.31;97982.20;263025;1085;25890;-74
2021/08/16 12:04:14;;;;;;;3.73;3.35;;;;;;;29.26;43.58;97976.69;263055;1087;23710;-74
2021/08/16 12:09:17;;;;;;;5.53;4.60;;;;;;;29.28;44.22;97973.49;263083;1087;24290;-74
2021/08/16 12:14:30;;;;;;;4.15;3.75;;;;;;;29.49;44.26;97972.94;263115;1088;28478;-73
2021/08/16 12:19:34;;;;;;;6.93;3.88;;;;;;;29.66;44.42;97970.09;263515;1088;22820;-73
2021/08/16 12:24:39;;;;;;;5.18;3.83;;;;;;;29.77;44.03;97964.28;263125;1087;22929;-73
2021/08/16 12:29:56;;;;;;;8.68;5.95;;;;;;;29.86;44.40;97956.17;263168;1089;22817;-73
2021/08/16 12:35:21;;;;;;;5.03;3.98;;;;;;;30.04;44.17;97958.41;263288;1087;25865;-73
2021/08/16 12:40:24;;;;;;;6.53;4.88;;;;;;;30.17;43.75;97941.85;263495;1089;26296;-73
2021/08/16 12:45:29;;;;;;;7.15;4.13;;;;;;;30.25;43.34;97931.34;263055;1087;24058;-73
2021/08/16 12:50:38;;;;;;;5.25;4.68;;;;;;;30.38;42.90;97941.17;263712;1085;22787;-73
2021/08/16 12:55:41;;;;;;;4.50;4.03;;;;;;;30.52;41.99;97945.51;263246;1088;22876;-74
2021/08/16 13:00:59;;;;;;;9.45;6.05;;;;;;;30.55;42.29;97933.56;262954;1088;23362;-74
2021/08/16 13:06:02;;;;;;;5.38;4.53;;;;;;;30.46;41.46;97924.40;263026;1087;25883;-73
2021/08/16 13:11:05;;;;;;;5.73;4.28;;;;;;;30.63;40.88;97922.30;263264;1087;24294;-74
2021/08/16 13:16:12;;;;;;;5.08;4.58;;;;;;;30.62;41.45;97904.16;263036;1087;24294;-75
2021/08/16 13:21:48;;;;;;;5.15;4.40;;;;;;;30.61;41.68;97897.84;262983;1089;22847;-73
2021/08/16 13:26:52;;;;;;;6.08;4.85;;;;;;;30.54;41.63;97903.61;262971;1089;28155;-74
2021/08/16 13:31:56;;;;;;;4.83;4.20;;;;;;;30.51;41.97;97905.30;263036;1087;24294;-74
2021/08/16 13:37:00;;;;;;;5.90;4.58;;;;;;;30.39;41.26;97900.53;263180;1086;23424;-75
2021/08/16 13:42:03;;;;;;;7.05;4.18;;;;;;;30.51;41.52;97896.22;263093;1086;24461;-72
2021/08/16 13:47:07;;;;;;;5.83;4.03;;;;;;;30.57;42.66;97899.19;263041;1087;22827;-73
2021/08/16 13:52:10;;;;;;;5.45;4.73;;;;;;;30.61;41.45;97897.08;263166;1085;22917;-72
2021/08/16 13:57:13;;;;;;;5.57;4.30;;;;;;;30.59;41.59;97899.53;263143;1087;25151;-73
2021/08/16 14:02:17;;;;;;;5.78;4.20;;;;;;;30.46;41.85;97894.80;263277;1087;22899;-73
2021/08/16 14:07:20;;;;;;;5.45;4.30;;;;;;;30.42;41.98;97901.64;263349;1086;22797;-73
2021/08/16 14:12:23;;;;;;;6.40;5.55;;;;;;;30.31;42.05;97888.92;262804;1090;25931;-73
2021/08/16 14:17:30;;;;;;;8.58;6.93;;;;;;;30.20;42.70;97883.73;262790;1089;22874;-73
2021/08/16 14:22:36;;;;;;;5.90;5.18;;;;;;;30.06;42.95;97886.95;262812;1090;23423;-72
2021/08/16 14:27:40;;;;;;;15.03;13.50;;;;;;;29.86;43.17;97893.45;262807;1087;22917;-74
2021/08/16 14:32:43;;;;;;;6.50;5.80;;;;;;;29.59;43.06;97890.28;262986;1087;23212;-72
2021/08/16 14:37:46;;;;;;;6.60;5.15;;;;;;;29.41;43.74;97888.03;262730;1085;25986;-73
2021/08/16 14:42:50;;;;;;;7.25;4.90;;;;;;;29.33;44.04;97884.72;262721;1087;27131;-73
2021/08/16 14:47:55;;;;;;;5.65;5.13;;;;;;;29.27;44.85;97878.17;262896;1087;25877;-73
2021/08/16 14:53:08;;;;;;;7.43;6.35;;;;;;;29.29;44.98;97878.53;262859;1087;22787;-73
2021/08/16 14:58:24;;;;;;;5.28;4.58;;;;;;;29.19;44.90;97896.88;262776;1086;22921;-73
2021/08/16 15:03:27;;;;;;;5.58;4.75;;;;;;;29.10;45.72;97894.77;262807;1087;23020;-73
2021/08/16 15:08:30;;;;;;;6.00;4.80;;;;;;;28.94;45.57;97892.80;262985;1085;22876;-73
2021/08/16 15:13:35;;;;;;;6.20;4.75;;;;;;;28.94;45.83;97884.53;262751;1087;25992;-72
2021/08/16 15:18:40;;;;;;;9.10;5.25;;;;;;;28.92;45.69;97888.92;262728;1085;22822;-73
2021/08/16 15:23:45;;;;;;;5.83;5.10;;;;;;;28.86;45.62;97885.92;262861;1087;27249;-73
2021/08/16 15:28:56;;;;;;;5.93;4.80;;;;;;;28.61;45.76;97903.06;262672;1087;22834;-73
2021/08/16 15:33:59;;;;;;;6.65;5.28;;;;;;;28.37;46.60;97900.48;262969;1086;27278;-73
2021/08/16 15:39:02;;;;;;;5.20;4.70;;;;;;;28.10;46.99;97898.73;262711;1087;22760;-73
2021/08/16 15:44:09;;;;;;;9.50;5.33;;;;;;;27.85;47.75;97888.25;262765;1087;22908;-73
2021/08/16 15:49:12;;;;;;;10.48;5.15;;;;;;;27.66;48.20;97884.34;262723;1086;22763;-73
2021/08/16 15:54:29;;;;;;;11.58;6.45;;;;;;;27.54;48.55;97887.74;262751;1087;22816;-74
2021/08/16 15:59:39;;;;;;;9.10;6.18;;;;;;;27.41;48.97;97888.38;262728;1087;23360;-74
2021/08/16 16:04:51;;;;;;;11.08;6.90;;;;;;;27.26;49.97;97895.33;262722;1087;27341;-73
2021/08/16 16:09:56;;;;;;;9.43;6.08;;;;;;;27.02;51.27;97898.12;262721;1087;26101;-72
2021/08/16 16:15:13;;;;;;;9.45;5.20;;;;;;;26.85;52.35;97901.95;262977;1089;25950;-73
2021/08/16 16:20:17;;;;;;;10.98;9.43;;;;;;;26.61;53.04;97899.97;262808;1088;27185;-72
2021/08/16 16:25:26;;;;;;;6.30;5.05;;;;;;;26.37;53.98;97915.66;262821;1089;23047;-73
2021/08/16 16:30:29;;;;;;;8.03;5.48;;;;;;;26.15;54.87;97920.67;262834;1090;22889;-73
2021/08/16 16:35:33;;;;;;;7.88;5.25;;;;;;;25.86;55.67;97925.74;263012;1088;23321;-72
2021/08/16 16:40:37;;;;;;;5.48;4.98;;;;;;;25.65;56.33;97924.05;262790;1088;22814;-73
2021/08/16 16:45:40;;;;;;;10.03;6.45;;;;;;;25.51;55.71;97923.02;262760;1088;22778;-72
2021/08/16 16:50:54;;;;;;;5.60;4.88;;;;;;;25.42;55.63;97917.23;262988;1090;22995;-72
2021/08/16 16:56:18;;;;;;;6.63;5.40;;;;;;;25.30;55.78;97906.80;262746;1087;25897;-73
2021/08/16 17:01:22;;;;;;;5.13;4.63;;;;;;;25.18;55.98;97914.33;262744;1090;25742;-73
2021/08/16 17:06:25;;;;;;;10.58;7.20;;;;;;;25.09;55.97;97901.11;262997;1088;25752;-73
2021/08/16 17:11:30;;;;;;;6.65;5.13;;;;;;;24.96;55.66;97883.66;262790;1090;22788;-73
2021/08/16 17:16:34;;;;;;;5.40;4.35;;;;;;;24.85;55.13;97883.75;262842;1088;22796;-72
2021/08/16 17:21:38;;;;;;;6.45;4.80;;;;;;;24.76;54.26;97886.97;262931;1087;25053;-73
2021/08/16 17:26:41;;;;;;;4.45;4.05;;;;;;;24.65;54.34;97891.77;262659;1090;23353;-73
2021/08/16 17:31:52;;;;;;;6.63;3.83;;;;;;;24.53;54.35;97897.70;262854;1090;25862;-73
2021/08/16 17:37:01;;;;;;;5.28;4.18;;;;;;;24.40;55.07;97900.11;262709;1090;26012;-72
2021/08/16 17:42:06;;;;;;;4.55;4.15;;;;;;;24.20;56.55;97908.08;262817;1088;23219;-72
2021/08/16 17:47:09;;;;;;;5.95;4.33;;;;;;;24.02;57.08;97921.86;262803;1088;26261;-72
2021/08/16 17:52:12;;;;;;;5.88;4.60;;;;;;;23.83;57.16;97929.36;262865;1087;22774;-72
2021/08/16 17:57:17;;;;;;;4.80;4.30;;;;;;;23.64;57.51;97929.83;262622;1087;25931;-73
2021/08/16 18:02:21;;;;;;;4.80;4.10;;;;;;;23.43;58.30;97934.19;262689;1089;25966;-73
2021/08/16 18:07:25;;;;;;;3.85;3.35;;;;;;;23.18;59.71;97932.31;262896;1090;22866;-71
2021/08/16 18:12:28;;;;;;;4.25;3.85;;;;;;;22.99;60.77;97927.23;262794;1090;25755;-73
2021/08/16 18:17:33;;;;;;;4.33;3.83;;;;;;;22.78;62.76;97941.69;262753;1090;24757;-73
2021/08/16 18:22:38;;;;;;;4.38;3.50;;;;;;;22.54;63.34;97954.93;262655;1089;22794;-73
2021/08/16 18:27:42;;;;;;;5.00;3.88;;;;;;;22.31;65.85;97960.70;262734;1090;22779;-73
2021/08/16 18:32:45;;;;;;;4.95;3.53;;;;;;;22.07;65.96;97973.11;262764;1089;25797;-72
2021/08/16 18:37:48;;;;;;;4.70;3.78;;;;;;;21.87;66.75;97974.20;262720;1089;23388;-73
2021/08/16 18:42:52;;;;;;;5.88;3.78;;;;;;;21.74;67.83;97986.61;262962;1089;22775;-73
2021/08/16 18:47:55;;;;;;;4.55;3.68;;;;;;;21.62;68.70;97987.70;262793;1089;22850;-73
2021/08/16 18:52:59;;;;;;;4.57;3.67;;;;;;;21.49;69.11;97981.78;262686;1089;24037;-73
2021/08/16 18:58:11;;;;;;;3.83;3.17;;;;;;;21.40;69.30;97988.72;262875;1088;24297;-72
2021/08/16 19:03:15;;;;;;;5.53;4.20;;;;;;;21.30;69.00;97985.53;262803;1090;22748;-72
2021/08/16 19:08:20;;;;;;;4.70;3.30;;;;;;;21.25;69.43;97979.67;262734;1088;22773;-73
2021/08/16 19:13:37;;;;;;;5.23;4.00;;;;;;;21.17;71.12;97976.90;262765;1090;22780;-73
2021/08/16 19:18:48;;;;;;;4.08;3.13;;;;;;;21.09;70.89;97969.06;262694;1090;22831;-72
2021/08/16 19:23:53;;;;;;;4.95;3.35;;;;;;;21.05;70.85;97969.02;262697;1089;26012;-73
2021/08/16 19:28:56;;;;;;;4.53;3.80;;;;;;;20.98;70.25;97950.69;262656;1089;23010;-73
2021/08/16 19:33:59;;;;;;;7.90;3.50;;;;;;;20.94;70.40;97949.88;262671;1088;25879;-73
2021/08/16 19:39:02;;;;;;;3.83;3.35;;;;;;;20.96;70.59;97955.75;262643;1087;22787;-72
2021/08/16 19:44:09;;;;;;;4.88;4.00;;;;;;;20.85;71.00;97928.44;262676;1087;22802;-73
2021/08/16 19:49:12;;;;;;;5.50;3.68;;;;;;;20.82;70.97;97931.15;262713;1087;22771;-73
2021/08/16 19:54:15;;;;;;;7.43;4.83;;;;;;;20.79;71.74;97929.16;262742;1087;24328;-72
2021/08/16 19:59:18;;;;;;;4.80;4.30;;;;;;;20.72;72.20;97938.07;262946;1086;23388;-74
2021/08/16 20:04:21;;;;;;;5.75;3.85;;;;;;;20.67;72.06;97933.73;262767;1087;25890;-72
2021/08/16 20:09:38;;;;;;;4.53;3.50;;;;;;;20.66;72.16;97931.36;262846;1088;22776;-72
2021/08/16 20:15:13;;;;;;;4.30;3.80;;;;;;;20.66;72.38;97939.53;262685;1089;23340;-73
2021/08/16 20:20:16;;;;;;;6.50;3.60;;;;;;;20.63;72.24;97937.56;262702;1089;25947;-72
2021/08/16 20:25:21;;;;;;;4.10;3.57;;;;;;;20.58;72.46;97946.06;262824;1088;25784;-72
2021/08/16 20:30:24;;;;;;;3.60;3.30;;;;;;;20.57;72.79;97952.68;262728;1090;25761;-74
2021/08/16 20:35:27;;;;;;;4.93;2.90;;;;;;;20.57;72.66;97956.17;262702;1087;22827;-73
2021/08/16 20:40:32;;;;;;;3.90;2.77;;;;;;;20.60;72.05;97952.70;262991;1087;22748;-73
2021/08/16 20:45:42;;;;;;;2.93;2.73;;;;;;;20.63;71.68;97948.45;262834;1086;22927;-73
2021/08/16 20:51:01;;;;;;;2.67;2.40;;;;;;;20.60;71.43;97943.77;262780;1087;22870;-72
2021/08/16 20:56:05;;;;;;;3.63;3.08;;;;;;;20.58;71.55;97944.14;262750;1086;25774;-72
2021/08/16 21:01:11;;;;;;;3.05;2.50;;;;;;;20.59;71.24;97955.80;262634;1087;24208;-72
2021/08/16 21:06:14;;;;;;;3.87;2.30;;;;;;;20.55;71.36;97954.98;262711;1085;22953;-72
2021/08/16 21:11:19;;;;;;;2.67;2.43;;;;;;;20.55;71.05;97954.98;262752;1087;24335;-72
2021/08/16 21:16:24;;;;;;;3.87;2.57;;;;;;;20.56;70.87;97970.92;262661;1087;22860;-72
2021/08/16 21:21:29;;;;;;;4.10;2.57;;;;;;;20.57;71.00;97966.28;262911;1086;25990;-72
2021/08/16 21:26:32;;;;;;;3.23;2.40;;;;;;;20.54;70.97;97961.56;262759;1087;25861;-73
2021/08/16 21:31:35;;;;;;;3.53;2.20;;;;;;;20.51;71.37;97972.05;262673;1090;22934;-73
2021/08/16 21:36:40;;;;;;;4.25;2.58;;;;;;;20.47;71.31;97979.40;262845;1090;25887;-73
2021/08/16 21:41:43;;;;;;;3.75;2.78;;;;;;;20.41;71.43;97980.10;262758;1089;23391;-72
2021/08/16 21:46:46;;;;;;;4.03;2.63;;;;;;;20.41;71.40;97997.22;262681;1089;24314;-74
2021/08/16 21:51:49;;;;;;;2.83;2.57;;;;;;;20.38;71.85;98002.61;262597;1089;23548;-71
2021/08/16 21:57:30;;;;;;;3.20;2.90;;;;;;;20.31;71.89;98009.55;262714;1087;22956;-72
2021/08/16 22:03:35;;;;;;;3.93;3.40;;;;;;;20.31;72.37;98031.31;262715;1089;25771;-72
2021/08/16 22:09:41;;;;;;;4.10;3.40;;;;;;;20.21;72.69;98042.05;262679;1089;22773;-71
2021/08/16 22:15:50;;;;;;;7.15;3.55;;;;;;;19.99;73.09;98041.77;262840;1089;27166;-72
2021/08/16 22:21:48;;;;;;;5.00;3.67;;;;;;;19.80;73.65;98038.05;262713;1089;22873;-71
2021/08/16 22:26:52;;;;;;;5.73;3.67;;;;;;;19.60;74.47;98026.50;262774;1090;22765;-71
2021/08/16 22:31:58;;;;;;;4.97;3.60;;;;;;;19.42;75.19;98037.09;262731;1087;22756;-72
2021/08/16 22:37:07;;;;;;;5.97;4.00;;;;;;;19.28;76.07;98045.03;262670;1089;25915;-72
2021/08/16 22:42:17;;;;;;;4.30;3.05;;;;;;;19.01;76.84;98087.62;262682;1087;25983;-72
2021/08/16 22:47:42;;;;;;;4.47;2.73;;;;;;;18.66;77.04;98083.86;262712;1088;24307;-72
2021/08/16 22:52:46;;;;;;;4.80;2.10;;;;;;;18.04;77.20;98091.92;262654;1088;27010;-73
2021/08/16 22:57:49;;;;;;;2.95;2.00;;;;;;;17.39;77.80;98085.00;262780;1090;22779;-75
2021/08/16 23:02:53;;;;;;;3.00;1.90;;;;;;;16.82;78.30;98082.42;262629;1087;26245;-76
2021/08/16 23:07:57;;;;;;;5.57;2.50;;;;;;;16.42;79.64;98094.09;262656;1087;25880;-76
2021/08/16 23:13:00;;;;;;;4.63;2.13;;;;;;;16.22;80.56;98106.66;262670;1088;22773;-76
2021/08/16 23:18:06;;;;;;;4.45;2.65;;;;;;;16.17;81.52;98118.50;262691;1089;22803;-76
2021/08/16 23:23:13;;;;;;;6.90;3.10;;;;;;;16.19;82.30;98118.16;262792;1087;24290;-77
2021/08/16 23:28:38;;;;;;;6.95;3.80;;;;;;;16.18;82.52;98109.24;262700;1086;25797;-78
2021/08/16 23:33:43;;;;;;;9.00;3.75;;;;;;;16.15;82.01;98080.21;262812;1086;22825;-80
2021/08/16 23:38:47;;;;;;;5.55;3.30;;;;;;;16.11;82.31;98089.35;263248;1087;22867;-80
2021/08/16 23:43:51;;;;;;;5.35;3.50;;;;;;;16.02;82.44;98097.56;263169;1090;24045;-81